Time;durP1;ratioP1;P1;durP2;ratioP2;P2;SDS_P1;SDS_P2;PMS_P1;PMS_P2;Temp;Humidity;BMP_temperature;BMP_pressure;BME280_temperature;BME280_humidity;BME280_pressure;Samples;Min_cycle;Max_cycle;Signal;HPM_P1;HPM_P2
2022/04/08 00:02:09;;;;;;;6.80;1.20;;;;;;;;;;6286492;22;20030;-84
2022/04/08 00:04:37;;;;;;;4.70;1.20;;;;;;;;;;6286398;22;20096;-84
2022/04/08 00:07:05;;;;;;;2.03;0.80;;;;;;;;;;6284593;22;20027;-84
2022/04/08 00:09:33;;;;;;;8.65;0.88;;;;;;;;;;6286231;22;20023;-84
2022/04/08 00:12:01;;;;;;;5.22;1.27;;;;;;;;;;6286261;22;20019;-83
2022/04/08 00:14:29;;;;;;;4.93;0.98;;;;;;;;;;6287156;22;20542;-84
2022/04/08 00:16:57;;;;;;;5.90;1.00;;;;;;;;;;6285973;22;20020;-85
2022/04/08 00:19:27;;;;;;;2.90;0.90;;;;;;;;;;6286661;22;20016;-85
2022/04/08 00:21:55;;;;;;;3.95;0.80;;;;;;;;;;6286379;22;20015;-84
2022/04/08 00:24:23;;;;;;;3.08;0.75;;;;;;;;;;6286092;22;20015;-84
2022/04/08 00:26:51;;;;;;;3.22;0.77;;;;;;;;;;6286960;22;20484;-84
2022/04/08 00:29:19;;;;;;;1.63;0.65;;;;;;;;;;6285909;22;20023;-84
2022/04/08 00:31:47;;;;;;;2.78;0.60;;;;;;;;;;6249526;22;20069;-85
2022/04/08 00:34:16;;;;;;;3.53;0.63;;;;;;;;;;6286347;22;20020;-84
2022/04/08 00:36:43;;;;;;;7.85;1.60;;;;;;;;;;6286186;22;20020;-88
2022/04/08 00:39:11;;;;;;;1.45;0.77;;;;;;;;;;6286907;22;20024;-87
2022/04/08 00:41:39;;;;;;;3.75;0.60;;;;;;;;;;6286512;22;20029;-87
2022/04/08 00:44:08;;;;;;;3.47;0.77;;;;;;;;;;6285186;22;20011;-87
2022/04/08 00:46:38;;;;;;;8.68;1.65;;;;;;;;;;6225122;22;20027;-87
2022/04/08 00:49:05;;;;;;;3.13;0.50;;;;;;;;;;6286777;22;20028;-87
2022/04/08 00:51:34;;;;;;;2.53;0.57;;;;;;;;;;6260524;22;20069;-87
2022/04/08 00:54:02;;;;;;;6.95;1.10;;;;;;;;;;6286743;22;20012;-88
2022/04/08 00:56:30;;;;;;;3.30;0.70;;;;;;;;;;6300305;22;20577;-86
2022/04/08 00:58:58;;;;;;;3.40;0.80;;;;;;;;;;6305063;22;20079;-87
2022/04/08 01:01:25;;;;;;;7.03;0.88;;;;;;;;;;6306842;22;20089;-87
2022/04/08 01:03:53;;;;;;;4.78;0.80;;;;;;;;;;6295816;22;20439;-90
2022/04/08 01:06:22;;;;;;;3.72;0.80;;;;;;;;;;6292740;22;20020;-87
2022/04/08 01:08:52;;;;;;;5.40;0.70;;;;;;;;;;6306020;22;20026;-87
2022/04/08 01:11:19;;;;;;;4.30;0.88;;;;;;;;;;6307839;22;20050;-87
2022/04/08 01:13:47;;;;;;;3.50;0.93;;;;;;;;;;6295767;22;20019;-86
2022/04/08 01:16:15;;;;;;;3.83;0.80;;;;;;;;;;6304701;22;20012;-87
2022/04/08 01:18:43;;;;;;;5.43;0.98;;;;;;;;;;6286224;22;20062;-87
2022/04/08 01:21:11;;;;;;;5.55;1.50;;;;;;;;;;6284868;22;20085;-87
2022/04/08 01:23:46;;;;;;;5.15;1.00;;;;;;;;;;6284505;22;20016;-87
2022/04/08 01:26:14;;;;;;;3.42;1.15;;;;;;;;;;6284755;22;20030;-87
2022/04/08 01:28:45;;;;;;;4.95;0.95;;;;;;;;;;6249366;22;20024;-88
2022/04/08 01:31:15;;;;;;;5.28;1.10;;;;;;;;;;6284529;22;20043;-86
2022/04/08 01:33:44;;;;;;;4.50;0.88;;;;;;;;;;6286184;22;20008;-87
2022/04/08 01:36:11;;;;;;;7.53;1.15;;;;;;;;;;6284613;22;20019;-87
2022/04/08 01:38:39;;;;;;;7.50;1.05;;;;;;;;;;6273947;22;20015;-87
2022/04/08 01:41:09;;;;;;;8.05;1.17;;;;;;;;;;6259924;22;20024;-87
2022/04/08 01:43:37;;;;;;;5.55;0.95;;;;;;;;;;6284530;22;20012;-87
2022/04/08 01:46:05;;;;;;;5.05;0.90;;;;;;;;;;6284977;22;20431;-87
2022/04/08 01:48:33;;;;;;;6.00;1.27;;;;;;;;;;6283331;22;20031;-87
2022/04/08 01:51:01;;;;;;;7.13;0.90;;;;;;;;;;6286025;22;20015;-87
2022/04/08 01:53:29;;;;;;;5.47;1.08;;;;;;;;;;6285413;22;20640;-87
2022/04/08 01:55:57;;;;;;;6.35;1.42;;;;;;;;;;6286101;22;20090;-87
2022/04/08 01:58:25;;;;;;;4.80;1.30;;;;;;;;;;6284015;22;20015;-87
2022/04/08 02:00:59;;;;;;;4.47;1.10;;;;;;;;;;6285950;22;20024;-88
2022/04/08 02:03:28;;;;;;;10.10;0.93;;;;;;;;;;6228635;23;20446;-87
2022/04/08 02:05:55;;;;;;;7.15;1.10;;;;;;;;;;6218232;23;20020;-88
2022/04/08 02:08:23;;;;;;;7.75;1.23;;;;;;;;;;6253481;23;20054;-88
2022/04/08 02:10:55;;;;;;;4.50;0.88;;;;;;;;;;6253499;23;20095;-87
2022/04/08 02:13:21;;;;;;;4.95;0.90;;;;;;;;;;6253848;23;20103;-88
2022/04/08 02:15:49;;;;;;;14.52;1.48;;;;;;;;;;6254954;23;20035;-87
2022/04/08 02:18:17;;;;;;;7.85;1.15;;;;;;;;;;6228754;23;20035;-87
2022/04/08 02:20:45;;;;;;;8.95;1.48;;;;;;;;;;6255199;22;20016;-87
2022/04/08 02:23:14;;;;;;;6.13;1.02;;;;;;;;;;6254828;23;20099;-86
2022/04/08 02:25:46;;;;;;;3.55;0.75;;;;;;;;;;6254801;22;20480;-86
2022/04/08 02:28:13;;;;;;;2.95;1.10;;;;;;;;;;6254295;23;20074;-87
2022/04/08 02:30:41;;;;;;;4.30;1.00;;;;;;;;;;6253096;23;20066;-87
2022/04/08 02:33:09;;;;;;;1.25;0.60;;;;;;;;;;6254726;22;20557;-88
2022/04/08 02:35:37;;;;;;;6.07;0.98;;;;;;;;;;6228970;23;20020;-88
2022/04/08 02:38:05;;;;;;;8.40;1.58;;;;;;;;;;6252964;23;20098;-87
2022/04/08 02:40:33;;;;;;;6.03;1.10;;;;;;;;;;6254336;23;20684;-87
2022/04/08 02:43:01;;;;;;;7.72;1.35;;;;;;;;;;6252781;23;20066;-87
2022/04/08 02:45:29;;;;;;;6.32;0.95;;;;;;;;;;6253219;23;20016;-88
2022/04/08 02:47:57;;;;;;;1.80;0.70;;;;;;;;;;6242905;23;20066;-86
2022/04/08 02:50:25;;;;;;;4.13;0.90;;;;;;;;;;6218177;23;20031;-87
2022/04/08 02:52:53;;;;;;;8.10;1.10;;;;;;;;;;6254147;22;20069;-86
2022/04/08 02:55:22;;;;;;;6.45;1.10;;;;;;;;;;6254369;23;20034;-87
2022/04/08 02:57:51;;;;;;;6.30;1.20;;;;;;;;;;6252703;23;20059;-87
2022/04/08 03:00:20;;;;;;;4.80;1.00;;;;;;;;;;6252901;23;20027;-87
2022/04/08 03:02:48;;;;;;;7.93;1.15;;;;;;;;;;6252890;23;20577;-87
2022/04/08 03:05:16;;;;;;;5.25;1.50;;;;;;;;;;6254501;22;20012;-88
2022/04/08 03:07:43;;;;;;;15.85;1.33;;;;;;;;;;6253818;22;20030;-88
2022/04/08 03:10:12;;;;;;;4.97;1.55;;;;;;;;;;6252950;23;20020;-87
2022/04/08 03:12:40;;;;;;;5.38;1.33;;;;;;;;;;6252451;23;20078;-87
2022/04/08 03:15:11;;;;;;;7.97;1.45;;;;;;;;;;6254042;22;20020;-87
2022/04/08 03:17:39;;;;;;;8.88;1.33;;;;;;;;;;6252658;23;20564;-88
2022/04/08 03:20:08;;;;;;;7.88;1.05;;;;;;;;;;6254275;22;20016;-87
2022/04/08 03:22:35;;;;;;;11.18;1.75;;;;;;;;;;6253820;23;20016;-87
2022/04/08 03:25:04;;;;;;;12.05;1.02;;;;;;;;;;6252963;23;20386;-87
2022/04/08 03:27:33;;;;;;;5.28;1.08;;;;;;;;;;6254258;22;20020;-87
2022/04/08 03:30:01;;;;;;;12.40;1.00;;;;;;;;;;6254269;22;20020;-87
2022/04/08 03:32:29;;;;;;;13.63;1.13;;;;;;;;;;6227856;23;20070;-87
2022/04/08 03:34:57;;;;;;;8.65;1.63;;;;;;;;;;6254458;23;20012;-87
2022/04/08 03:37:26;;;;;;;9.55;1.25;;;;;;;;;;6241497;23;20024;-87
2022/04/08 03:39:53;;;;;;;3.70;1.45;;;;;;;;;;6217716;23;20023;-88
2022/04/08 03:42:22;;;;;;;10.20;1.33;;;;;;;;;;6253921;23;20069;-87
2022/04/08 03:44:51;;;;;;;6.95;1.77;;;;;;;;;;6254384;22;20062;-87
2022/04/08 03:47:20;;;;;;;17.92;1.60;;;;;;;;;;6252977;23;20074;-87
2022/04/08 03:49:47;;;;;;;3.83;0.75;;;;;;;;;;6253285;23;20404;-87
2022/04/08 03:52:15;;;;;;;7.32;1.50;;;;;;;;;;6254058;22;20100;-87
2022/04/08 03:54:43;;;;;;;9.25;1.80;;;;;;;;;;6253699;22;20008;-88
2022/04/08 03:57:11;;;;;;;12.55;1.70;;;;;;;;;;6252653;23;20016;-87
2022/04/08 03:59:42;;;;;;;5.78;1.15;;;;;;;;;;6252432;23;20020;-87
2022/04/08 04:02:09;;;;;;;10.80;1.48;;;;;;;;;;6252504;23;20028;-87
2022/04/08 04:04:37;;;;;;;16.63;1.38;;;;;;;;;;6252418;23;20022;-87
2022/04/08 04:07:05;;;;;;;5.80;1.20;;;;;;;;;;6252260;23;20039;-86
2022/04/08 04:09:33;;;;;;;16.63;1.48;;;;;;;;;;6252190;23;20016;-87
2022/04/08 04:12:01;;;;;;;10.50;1.30;;;;;;;;;;6252829;23;20347;-87
2022/04/08 04:14:29;;;;;;;9.32;1.30;;;;;;;;;;6254496;22;20020;-87
2022/04/08 04:16:57;;;;;;;12.45;1.83;;;;;;;;;;6254223;22;20020;-87
2022/04/08 04:19:25;;;;;;;9.75;1.65;;;;;;;;;;6248719;23;20038;-87
2022/04/08 04:21:53;;;;;;;4.53;0.95;;;;;;;;;;6252342;23;20020;-87
2022/04/08 04:24:21;;;;;;;7.88;1.30;;;;;;;;;;6227774;23;20016;-86
2022/04/08 04:26:49;;;;;;;7.55;1.27;;;;;;;;;;6252502;23;20406;-87
2022/04/08 04:29:18;;;;;;;7.68;1.17;;;;;;;;;;6253790;23;20017;-87
2022/04/08 04:31:46;;;;;;;9.52;1.65;;;;;;;;;;6252703;23;20073;-87
2022/04/08 04:34:15;;;;;;;6.15;1.33;;;;;;;;;;6254127;23;20012;-87
2022/04/08 04:36:43;;;;;;;11.10;1.83;;;;;;;;;;6253727;23;20016;-88
2022/04/08 04:39:11;;;;;;;8.80;1.15;;;;;;;;;;6254001;23;20012;-87
2022/04/08 04:41:39;;;;;;;9.98;0.95;;;;;;;;;;6253790;22;20111;-87
2022/04/08 04:44:07;;;;;;;4.55;1.05;;;;;;;;;;6254290;23;20019;-86
2022/04/08 04:46:36;;;;;;;4.05;1.10;;;;;;;;;;6229586;23;20095;-87
2022/04/08 04:49:03;;;;;;;16.67;1.60;;;;;;;;;;6254641;23;20031;-87
2022/04/08 04:51:31;;;;;;;10.18;1.17;;;;;;;;;;6255860;22;20023;-87
2022/04/08 04:53:59;;;;;;;4.03;1.17;;;;;;;;;;6255500;22;20439;-87
2022/04/08 04:56:27;;;;;;;6.22;1.35;;;;;;;;;;6254678;23;20066;-87
2022/04/08 04:58:55;;;;;;;5.63;0.90;;;;;;;;;;6254045;23;20016;-87
2022/04/08 05:01:23;;;;;;;4.22;0.88;;;;;;;;;;6254077;23;20016;-87
2022/04/08 05:03:51;;;;;;;12.30;1.40;;;;;;;;;;6255550;22;20020;-86
2022/04/08 05:06:19;;;;;;;9.32;1.50;;;;;;;;;;6254208;23;20038;-87
2022/04/08 05:08:52;;;;;;;7.50;1.08;;;;;;;;;;6254460;23;20019;-87
2022/04/08 05:11:19;;;;;;;7.95;1.10;;;;;;;;;;6254187;23;20347;-88
2022/04/08 05:13:47;;;;;;;6.35;1.02;;;;;;;;;;6219121;23;20096;-87
2022/04/08 05:16:15;;;;;;;8.63;1.40;;;;;;;;;;6254557;23;20024;-87
2022/04/08 05:18:43;;;;;;;13.70;1.45;;;;;;;;;;6255518;22;20450;-86
2022/04/08 05:21:11;;;;;;;5.68;0.95;;;;;;;;;;6255837;23;20024;-88
2022/04/08 05:23:39;;;;;;;8.80;1.25;;;;;;;;;;6255388;22;20019;-87
2022/04/08 05:26:07;;;;;;;5.60;1.00;;;;;;;;;;6255634;23;20351;-88
2022/04/08 05:28:35;;;;;;;10.35;1.30;;;;;;;;;;6255723;23;20020;-87
2022/04/08 05:31:03;;;;;;;11.40;1.35;;;;;;;;;;6255057;23;20093;-88
2022/04/08 05:33:31;;;;;;;9.20;2.03;;;;;;;;;;6218395;23;20022;-88
2022/04/08 05:35:59;;;;;;;7.65;1.58;;;;;;;;;;6254900;23;20024;-88
2022/04/08 05:38:27;;;;;;;11.38;1.30;;;;;;;;;;6254524;23;20096;-88
2022/04/08 05:40:55;;;;;;;7.15;1.17;;;;;;;;;;6254719;23;20051;-88
2022/04/08 05:43:23;;;;;;;3.45;1.17;;;;;;;;;;6254858;22;20020;-88
2022/04/08 05:45:52;;;;;;;6.10;1.02;;;;;;;;;;6254641;22;20040;-87
2022/04/08 05:48:19;;;;;;;4.18;1.20;;;;;;;;;;6254800;23;20024;-87
2022/04/08 05:50:47;;;;;;;7.65;1.00;;;;;;;;;;6252523;23;20542;-89
2022/04/08 05:53:15;;;;;;;3.47;0.82;;;;;;;;;;6217129;23;20027;-87
2022/04/08 05:56:04;;;;;;;9.63;1.73;;;;;;;;;;6253452;22;20020;-87
2022/04/08 05:58:32;;;;;;;12.57;1.40;;;;;;;;;;6253108;23;20023;-89
2022/04/08 06:01:00;;;;;;;3.53;0.82;;;;;;;;;;6227924;23;20020;-90
2022/04/08 06:03:27;;;;;;;9.73;1.73;;;;;;;;;;6228036;23;20016;-89
2022/04/08 06:05:55;;;;;;;9.27;1.20;;;;;;;;;;6228131;23;20039;-88
2022/04/08 06:08:23;;;;;;;3.05;1.50;;;;;;;;;;6254037;22;20419;-89
2022/04/08 06:10:51;;;;;;;6.45;1.17;;;;;;;;;;6217593;23;20435;-89
2022/04/08 06:13:24;;;;;;;6.35;1.15;;;;;;;;;;6227815;23;20479;-89
2022/04/08 06:15:53;;;;;;;5.68;1.38;;;;;;;;;;6252589;23;20023;-89
2022/04/08 06:18:19;;;;;;;8.10;1.48;;;;;;;;;;6252649;23;20035;-89
2022/04/08 06:20:47;;;;;;;6.40;1.45;;;;;;;;;;6252894;23;20016;-89
2022/04/08 06:23:15;;;;;;;9.70;1.55;;;;;;;;;;6253910;22;20015;-89
2022/04/08 06:25:43;;;;;;;8.02;1.00;;;;;;;;;;6252967;23;20009;-89
2022/04/08 06:28:11;;;;;;;5.22;1.25;;;;;;;;;;6254138;23;20020;-89
2022/04/08 06:30:40;;;;;;;3.45;1.02;;;;;;;;;;6251969;23;20410;-89
2022/04/08 06:33:08;;;;;;;7.70;1.20;;;;;;;;;;6249721;23;20340;-89
2022/04/08 06:35:36;;;;;;;16.13;1.60;;;;;;;;;;6242306;23;20012;-89
2022/04/08 06:38:05;;;;;;;11.20;1.30;;;;;;;;;;6242139;23;20024;-89
2022/04/08 06:40:35;;;;;;;9.02;1.50;;;;;;;;;;6254498;22;20016;-90
2022/04/08 06:43:05;;;;;;;10.50;1.70;;;;;;;;;;6253372;22;20459;-89
2022/04/08 06:45:34;;;;;;;6.85;1.10;;;;;;;;;;6250986;23;20016;-89
2022/04/08 06:48:02;;;;;;;9.70;1.73;;;;;;;;;;6252244;22;20020;-88
2022/04/08 06:50:29;;;;;;;8.68;1.10;;;;;;;;;;6253510;23;20707;-89
2022/04/08 06:53:00;;;;;;;6.35;1.10;;;;;;;;;;6252060;23;20016;-89
2022/04/08 06:55:30;;;;;;;12.00;1.58;;;;;;;;;;6252213;23;20027;-88
2022/04/08 06:57:59;;;;;;;8.18;1.30;;;;;;;;;;6215317;23;20052;-89
2022/04/08 07:00:28;;;;;;;13.45;1.45;;;;;;;;;;6253617;23;20019;-89
2022/04/08 07:02:55;;;;;;;4.70;0.80;;;;;;;;;;6226301;23;20016;-89
2022/04/08 07:05:26;;;;;;;11.23;1.48;;;;;;;;;;6253653;23;20008;-87
2022/04/08 07:07:54;;;;;;;11.52;1.52;;;;;;;;;;6252690;22;20020;-88
2022/04/08 07:10:21;;;;;;;6.45;1.55;;;;;;;;;;6253502;22;20024;-89
2022/04/08 07:12:49;;;;;;;6.43;1.50;;;;;;;;;;6252016;23;20020;-88
2022/04/08 07:15:17;;;;;;;7.07;1.42;;;;;;;;;;6253262;22;20026;-88
2022/04/08 07:17:46;;;;;;;8.20;1.27;;;;;;;;;;6216496;23;20019;-88
2022/04/08 07:20:16;;;;;;;7.35;1.70;;;;;;;;;;6253459;22;20024;-88
2022/04/08 07:22:46;;;;;;;7.32;1.23;;;;;;;;;;6251907;23;20024;-88
2022/04/08 07:25:18;;;;;;;5.55;1.35;;;;;;;;;;6253421;23;20399;-87
2022/04/08 07:27:48;;;;;;;6.00;1.20;;;;;;;;;;6251839;23;20466;-88
2022/04/08 07:30:17;;;;;;;4.85;1.00;;;;;;;;;;6253347;22;20451;-89
2022/04/08 07:32:46;;;;;;;7.85;1.20;;;;;;;;;;6250959;23;20074;-90
2022/04/08 07:35:13;;;;;;;8.57;1.63;;;;;;;;;;6253499;22;20019;-90
2022/04/08 07:37:41;;;;;;;4.93;1.38;;;;;;;;;;6252727;22;20329;-90
2022/04/08 07:40:11;;;;;;;4.75;1.45;;;;;;;;;;6253001;22;20086;-90
2022/04/08 07:42:40;;;;;;;10.82;1.42;;;;;;;;;;6216830;23;20028;-89
2022/04/08 07:45:08;;;;;;;3.95;1.02;;;;;;;;;;6241616;23;20024;-89
2022/04/08 07:47:35;;;;;;;4.10;0.95;;;;;;;;;;6252512;22;20024;-88
2022/04/08 07:50:09;;;;;;;5.55;1.00;;;;;;;;;;6252833;22;20446;-80
2022/04/08 07:52:41;;;;;;;2.92;0.80;;;;;;;;;;6250009;22;20095;-78
2022/04/08 07:55:13;;;;;;;4.05;1.20;;;;;;;;;;6252291;22;20023;-79
2022/04/08 07:57:45;;;;;;;6.63;1.08;;;;;;;;;;6252645;23;20016;-80
2022/04/08 08:00:15;;;;;;;4.22;1.27;;;;;;;;;;6252842;22;20530;-79
2022/04/08 08:02:43;;;;;;;2.20;0.70;;;;;;;;;;6251696;22;20024;-78
2022/04/08 08:05:12;;;;;;;4.13;1.02;;;;;;;;;;6252367;23;20320;-79
2022/04/08 08:07:54;;;;;;;3.30;0.77;;;;;;;;;;6251229;22;20026;-78
2022/04/08 08:10:41;;;;;;;1.80;0.70;;;;;;;;;;6250884;23;20016;-80
2022/04/08 08:13:09;;;;;;;1.92;0.80;;;;;;;;;;6240412;23;20122;-79
2022/04/08 08:15:38;;;;;;;2.90;1.00;;;;;;;;;;6252592;23;20071;-78
2022/04/08 08:18:07;;;;;;;5.50;0.90;;;;;;;;;;6253881;22;20050;-79
2022/04/08 08:20:37;;;;;;;5.15;1.10;;;;;;;;;;6254698;22;20027;-78
2022/04/08 08:23:08;;;;;;;2.58;1.08;;;;;;;;;;6252693;22;20020;-78
2022/04/08 08:25:35;;;;;;;4.18;1.15;;;;;;;;;;6254361;22;20085;-79
2022/04/08 08:28:03;;;;;;;5.03;1.13;;;;;;;;;;6252504;23;20024;-78
2022/04/08 08:30:32;;;;;;;4.03;1.20;;;;;;;;;;6254002;22;20042;-78
2022/04/08 08:32:59;;;;;;;3.90;1.10;;;;;;;;;;6253701;22;20047;-79
2022/04/08 08:35:27;;;;;;;4.40;1.02;;;;;;;;;;6241196;23;20016;-79
2022/04/08 08:38:00;;;;;;;5.18;1.08;;;;;;;;;;6254178;22;20024;-78
2022/04/08 08:40:32;;;;;;;5.60;1.33;;;;;;;;;;6230439;23;20094;-77
2022/04/08 08:43:07;;;;;;;8.38;1.20;;;;;;;;;;6253683;22;20035;-79
2022/04/08 08:45:37;;;;;;;3.80;1.40;;;;;;;;;;6253777;22;20012;-78
2022/04/08 08:48:05;;;;;;;3.05;0.98;;;;;;;;;;6252685;22;20023;-78
2022/04/08 08:50:38;;;;;;;3.28;0.90;;;;;;;;;;6252450;23;20071;-78
2022/04/08 08:53:05;;;;;;;6.32;1.33;;;;;;;;;;6251907;22;20020;-78
2022/04/08 08:55:33;;;;;;;7.05;1.30;;;;;;;;;;6252231;22;20016;-79
2022/04/08 08:58:01;;;;;;;4.57;1.00;;;;;;;;;;6252877;23;20111;-78
2022/04/08 09:00:29;;;;;;;5.80;1.30;;;;;;;;;;6253004;23;20024;-78
2022/04/08 09:02:57;;;;;;;3.80;1.40;;;;;;;;;;6252967;22;20020;-79
2022/04/08 09:05:25;;;;;;;3.95;1.23;;;;;;;;;;6253478;22;20347;-78
2022/04/08 09:07:57;;;;;;;4.30;1.20;;;;;;;;;;6251736;22;20479;-79
2022/04/08 09:10:32;;;;;;;8.15;1.13;;;;;;;;;;6252837;22;20016;-79
2022/04/08 09:13:00;;;;;;;6.10;1.60;;;;;;;;;;6251060;23;20024;-79
2022/04/08 09:15:28;;;;;;;6.03;1.50;;;;;;;;;;6239925;23;20020;-77
2022/04/08 09:18:14;;;;;;;5.55;1.00;;;;;;;;;;6252499;22;20077;-78
2022/04/08 09:20:44;;;;;;;7.13;1.67;;;;;;;;;;6253582;22;20016;-78
2022/04/08 09:23:17;;;;;;;8.55;1.35;;;;;;;;;;6251465;22;20043;-78
2022/04/08 09:25:57;;;;;;;6.90;1.65;;;;;;;;;;6253584;22;20091;-79
2022/04/08 09:28:35;;;;;;;5.82;1.20;;;;;;;;;;6250984;22;20024;-80
2022/04/08 09:31:05;;;;;;;5.63;1.10;;;;;;;;;;6250161;23;20522;-78
2022/04/08 09:33:33;;;;;;;7.13;1.63;;;;;;;;;;6252364;23;20031;-78
2022/04/08 09:36:01;;;;;;;6.68;1.10;;;;;;;;;;6249426;23;20026;-79
2022/04/08 09:38:30;;;;;;;5.47;1.00;;;;;;;;;;6252421;22;20412;-78
2022/04/08 09:41:07;;;;;;;7.78;1.60;;;;;;;;;;6252029;22;20016;-78
2022/04/08 09:43:36;;;;;;;5.35;1.15;;;;;;;;;;6252343;22;20027;-78
2022/04/08 09:46:20;;;;;;;3.17;1.00;;;;;;;;;;6251557;22;20016;-78
2022/04/08 09:48:49;;;;;;;5.40;1.05;;;;;;;;;;6252818;22;20043;-79
2022/04/08 09:51:20;;;;;;;5.18;0.82;;;;;;;;;;6251490;22;20031;-78
2022/04/08 09:53:54;;;;;;;3.40;1.08;;;;;;;;;;6215058;23;20016;-79
2022/04/08 09:56:23;;;;;;;3.63;0.77;;;;;;;;;;6252553;22;20062;-79
2022/04/08 09:59:01;;;;;;;3.80;0.85;;;;;;;;;;6252171;22;20051;-79
2022/04/08 10:01:30;;;;;;;6.28;0.90;;;;;;;;;;6250598;22;20047;-78
2022/04/08 10:03:58;;;;;;;3.75;0.93;;;;;;;;;;6226456;23;20020;-80
2022/04/08 10:06:27;;;;;;;2.83;0.98;;;;;;;;;;6250256;23;20016;-79
2022/04/08 10:08:56;;;;;;;3.83;1.48;;;;;;;;;;6252857;23;20127;-78
2022/04/08 10:11:45;;;;;;;4.85;1.08;;;;;;;;;;6251827;22;20507;-79
2022/04/08 10:14:32;;;;;;;6.80;1.15;;;;;;;;;;6251205;22;20044;-79
2022/04/08 10:17:00;;;;;;;10.48;1.40;;;;;;;;;;6223604;23;20098;-79
2022/04/08 10:19:31;;;;;;;6.97;1.15;;;;;;;;;;6240774;23;20020;-80
2022/04/08 10:22:02;;;;;;;6.32;1.20;;;;;;;;;;6253386;22;20019;-82
2022/04/08 10:24:31;;;;;;;2.97;0.70;;;;;;;;;;6254455;23;20416;-79
2022/04/08 10:27:26;;;;;;;2.35;0.90;;;;;;;;;;6251330;22;20082;-79
2022/04/08 10:29:54;;;;;;;2.75;0.80;;;;;;;;;;6251663;23;20387;-80
2022/04/08 10:32:21;;;;;;;3.42;1.05;;;;;;;;;;6225070;23;20024;-79
2022/04/08 10:34:51;;;;;;;3.20;1.27;;;;;;;;;;6252034;23;20066;-81
2022/04/08 10:37:21;;;;;;;4.50;1.08;;;;;;;;;;6251855;22;20028;-78
2022/04/08 10:40:15;;;;;;;2.30;0.52;;;;;;;;;;6215540;23;20020;-80
2022/04/08 10:42:45;;;;;;;3.30;0.82;;;;;;;;;;6237536;23;20082;-79
2022/04/08 10:45:14;;;;;;;3.92;1.00;;;;;;;;;;6252550;22;20046;-79
2022/04/08 10:47:48;;;;;;;4.20;0.93;;;;;;;;;;6251313;22;20020;-80
2022/04/08 10:50:30;;;;;;;4.03;1.08;;;;;;;;;;6252754;22;20103;-79
2022/04/08 10:53:08;;;;;;;6.13;0.95;;;;;;;;;;6252271;22;20027;-80
2022/04/08 10:56:23;;;;;;;4.18;1.00;;;;;;;;;;6256399;23;20080;-78
2022/04/08 10:58:51;;;;;;;3.40;1.00;;;;;;;;;;6110278;23;20030;-79
2022/04/08 11:01:22;;;;;;;4.15;1.08;;;;;;;;;;6131284;23;20052;-81
2022/04/08 11:04:00;;;;;;;2.63;0.90;;;;;;;;;;6132057;23;20026;-80
2022/04/08 11:06:29;;;;;;;3.17;0.90;;;;;;;;;;6106805;23;20018;-80
2022/04/08 11:09:04;;;;;;;2.08;0.88;;;;;;;;;;6129861;23;20052;-79
2022/04/08 11:11:36;;;;;;;4.07;0.90;;;;;;;;;;6129003;23;20381;-79
2022/04/08 11:14:05;;;;;;;5.38;1.20;;;;;;;;;;6129929;23;20025;-80
2022/04/08 11:16:38;;;;;;;3.45;0.80;;;;;;;;;;6129835;23;20026;-80
2022/04/08 11:19:07;;;;;;;3.88;0.77;;;;;;;;;;6131234;23;20068;-79
2022/04/08 11:21:37;;;;;;;3.47;1.05;;;;;;;;;;6106268;23;20029;-80
2022/04/08 11:24:06;;;;;;;3.03;0.80;;;;;;;;;;6130204;23;20021;-79
2022/04/08 11:26:48;;;;;;;2.58;0.80;;;;;;;;;;6129960;23;20026;-79
2022/04/08 11:29:20;;;;;;;4.78;1.00;;;;;;;;;;6131068;23;20450;-80
2022/04/08 11:31:50;;;;;;;2.70;1.08;;;;;;;;;;6130322;23;20026;-80
2022/04/08 11:34:18;;;;;;;3.03;0.95;;;;;;;;;;6180886;23;20026;-81
2022/04/08 11:36:45;;;;;;;2.70;0.93;;;;;;;;;;6241873;23;20023;-80
2022/04/08 11:39:21;;;;;;;3.60;0.77;;;;;;;;;;6252366;23;20071;-80
2022/04/08 11:41:53;;;;;;;4.35;1.10;;;;;;;;;;6253097;23;20510;-81
2022/04/08 11:44:22;;;;;;;1.85;0.68;;;;;;;;;;6254057;22;20023;-79
2022/04/08 11:46:50;;;;;;;2.92;1.25;;;;;;;;;;6252993;22;20661;-80
2022/04/08 11:49:24;;;;;;;5.15;0.98;;;;;;;;;;6248032;22;20753;-79
2022/04/08 11:52:03;;;;;;;4.03;0.70;;;;;;;;;;6253160;22;20050;-79
2022/04/08 11:54:39;;;;;;;1.02;0.63;;;;;;;;;;6253399;23;20065;-79
2022/04/08 11:57:33;;;;;;;4.90;0.70;;;;;;;;;;6255706;22;20016;-82
2022/04/08 12:00:01;;;;;;;2.75;1.00;;;;;;;;;;6231844;23;20016;-82
2022/04/08 12:02:37;;;;;;;4.05;0.80;;;;;;;;;;6257135;22;20024;-82
2022/04/08 12:05:07;;;;;;;3.05;0.90;;;;;;;;;;6257739;23;20098;-81
2022/04/08 12:07:52;;;;;;;5.43;0.70;;;;;;;;;;6256903;22;20020;-81
2022/04/08 12:10:22;;;;;;;2.97;0.98;;;;;;;;;;6255952;23;20022;-82
2022/04/08 12:12:50;;;;;;;5.20;1.13;;;;;;;;;;6257332;22;20110;-81
2022/04/08 12:15:23;;;;;;;3.20;0.80;;;;;;;;;;6256620;23;20016;-81
2022/04/08 12:17:51;;;;;;;6.07;1.08;;;;;;;;;;6256387;23;20016;-80
2022/04/08 12:20:21;;;;;;;3.20;1.02;;;;;;;;;;6255850;23;20019;-81
2022/04/08 12:22:49;;;;;;;5.43;0.85;;;;;;;;;;6253711;23;20024;-82
2022/04/08 12:25:20;;;;;;;4.40;0.90;;;;;;;;;;6254644;23;20076;-81
2022/04/08 12:27:55;;;;;;;1.60;0.90;;;;;;;;;;6256039;22;20038;-83
2022/04/08 12:30:38;;;;;;;2.95;0.93;;;;;;;;;;6256118;22;20020;-81
2022/04/08 12:33:05;;;;;;;1.70;0.80;;;;;;;;;;6253632;23;20020;-82
2022/04/08 12:35:33;;;;;;;2.67;0.95;;;;;;;;;;6256479;22;20047;-82
2022/04/08 12:38:04;;;;;;;2.22;1.00;;;;;;;;;;6254465;23;20523;-81
2022/04/08 12:40:32;;;;;;;2.33;0.85;;;;;;;;;;6254322;23;20024;-81
2022/04/08 12:43:02;;;;;;;4.05;1.10;;;;;;;;;;6255986;22;20320;-82
2022/04/08 12:45:29;;;;;;;4.20;1.30;;;;;;;;;;6255719;23;20026;-82
2022/04/08 12:47:57;;;;;;;3.60;1.33;;;;;;;;;;6254568;23;20012;-80
2022/04/08 12:50:25;;;;;;;3.13;1.00;;;;;;;;;;6255558;22;20095;-83
2022/04/08 12:52:53;;;;;;;3.15;0.75;;;;;;;;;;6254585;23;20020;-81
2022/04/08 12:55:21;;;;;;;2.35;0.73;;;;;;;;;;6255152;22;20055;-82
2022/04/08 12:57:49;;;;;;;2.75;0.77;;;;;;;;;;6254395;22;20020;-82
2022/04/08 13:00:23;;;;;;;1.88;1.10;;;;;;;;;;6254351;22;20020;-78
2022/04/08 13:02:55;;;;;;;1.95;0.70;;;;;;;;;;6247207;23;20051;-78
2022/04/08 13:05:22;;;;;;;1.95;0.90;;;;;;;;;;6250497;22;20028;-77
2022/04/08 13:07:52;;;;;;;1.50;0.60;;;;;;;;;;6248241;22;20040;-78
2022/04/08 13:10:19;;;;;;;3.35;0.52;;;;;;;;;;6250928;22;20031;-77
2022/04/08 13:12:47;;;;;;;2.65;0.63;;;;;;;;;;6249354;22;20027;-78
2022/04/08 13:15:15;;;;;;;2.22;0.80;;;;;;;;;;6252159;23;20024;-78
2022/04/08 13:17:43;;;;;;;3.78;0.77;;;;;;;;;;6250181;23;20023;-77
2022/04/08 13:20:12;;;;;;;3.58;0.82;;;;;;;;;;6250073;23;20034;-77
2022/04/08 13:22:39;;;;;;;3.53;0.90;;;;;;;;;;6249725;23;20367;-77
2022/04/08 13:25:11;;;;;;;2.65;1.05;;;;;;;;;;6251470;23;20023;-77
2022/04/08 13:27:42;;;;;;;3.08;1.13;;;;;;;;;;6248873;23;20027;-78
2022/04/08 13:30:10;;;;;;;3.28;0.95;;;;;;;;;;6253514;22;20115;-80
2022/04/08 13:32:38;;;;;;;3.95;1.00;;;;;;;;;;6252347;22;20012;-80
2022/04/08 13:35:07;;;;;;;8.15;1.77;;;;;;;;;;6253077;22;20024;-79
2022/04/08 13:37:36;;;;;;;3.60;0.73;;;;;;;;;;6251793;22;20538;-80
2022/04/08 13:40:04;;;;;;;4.15;0.75;;;;;;;;;;6255052;22;20086;-80
2022/04/08 13:42:31;;;;;;;3.00;0.63;;;;;;;;;;6253450;22;20025;-80
2022/04/08 13:44:59;;;;;;;3.92;0.60;;;;;;;;;;6253160;22;20031;-80
2022/04/08 13:47:27;;;;;;;2.83;1.00;;;;;;;;;;6251826;22;20015;-80
2022/04/08 13:49:55;;;;;;;4.22;0.85;;;;;;;;;;6255033;22;20047;-80
2022/04/08 13:52:24;;;;;;;4.90;0.90;;;;;;;;;;6251767;22;20123;-80
2022/04/08 13:54:58;;;;;;;3.88;0.65;;;;;;;;;;6254147;23;20102;-79
2022/04/08 13:57:25;;;;;;;1.75;0.65;;;;;;;;;;6254205;23;20443;-84
2022/04/08 13:59:53;;;;;;;4.85;1.10;;;;;;;;;;6254260;23;20024;-84
2022/04/08 14:02:21;;;;;;;4.72;0.80;;;;;;;;;;6252708;22;20032;-80
2022/04/08 14:04:49;;;;;;;9.90;1.00;;;;;;;;;;6254550;22;20027;-80
2022/04/08 14:07:18;;;;;;;5.20;0.73;;;;;;;;;;6254069;23;20019;-80
2022/04/08 14:09:45;;;;;;;3.83;0.95;;;;;;;;;;6254083;22;20024;-80
2022/04/08 14:12:13;;;;;;;1.63;0.68;;;;;;;;;;6253777;22;20016;-80
2022/04/08 14:14:41;;;;;;;2.38;0.80;;;;;;;;;;6254323;22;20077;-80
2022/04/08 14:17:29;;;;;;;4.30;0.80;;;;;;;;;;6254634;22;20032;-81
2022/04/08 14:19:57;;;;;;;2.08;0.88;;;;;;;;;;6247325;23;20103;-82
2022/04/08 14:22:25;;;;;;;6.32;1.48;;;;;;;;;;6253924;23;20624;-80
2022/04/08 14:24:53;;;;;;;3.30;1.10;;;;;;;;;;6255055;22;20102;-80
2022/04/08 14:27:40;;;;;;;3.40;0.80;;;;;;;;;;6255073;22;20016;-81
2022/04/08 14:30:09;;;;;;;3.20;0.70;;;;;;;;;;6254678;22;20345;-80
2022/04/08 14:32:36;;;;;;;1.98;0.77;;;;;;;;;;6254012;22;20031;-80
2022/04/08 14:35:05;;;;;;;3.33;0.80;;;;;;;;;;6253868;23;20399;-80
2022/04/08 14:37:33;;;;;;;5.20;0.95;;;;;;;;;;6243895;22;20346;-81
2022/04/08 14:40:00;;;;;;;3.10;0.85;;;;;;;;;;6252937;23;20090;-80
2022/04/08 14:42:28;;;;;;;2.72;0.63;;;;;;;;;;6250345;23;20020;-78
2022/04/08 14:44:56;;;;;;;3.30;0.70;;;;;;;;;;6251372;23;20024;-78
2022/04/08 14:47:24;;;;;;;3.90;0.60;;;;;;;;;;6238348;23;20028;-78
2022/04/08 14:49:53;;;;;;;7.35;1.13;;;;;;;;;;6250449;23;20027;-78
2022/04/08 14:52:20;;;;;;;4.88;0.70;;;;;;;;;;6250579;22;20027;-78
2022/04/08 14:54:48;;;;;;;8.10;0.85;;;;;;;;;;6249037;23;20080;-78
2022/04/08 14:57:16;;;;;;;3.10;0.73;;;;;;;;;;6249427;23;20023;-79